Hauptseite
METAR-TAF:

METAR-TAF

Flughäfen :

Flughafen O. R. Tambo

Johannesburg, Südafrika

Breite: 26-08S, Länge: 028-14E, Höhe: 1694 m

Beobachtung

Neuester Wetterbericht von vor 11 Minuten, um 17:30 UTC
Wind 6 kt aus Nordwest
Temperatur 13°C
Luftfeuchtigkeit 51%
Luftdruck 1034 hPa
Sichtweite 10 km oder mehr
keine Wolken unter 1500 m und keine Kumulonimbus oder Gewitterwolken

METAR: FAOR 231730Z 31006KT CAVOK 13/03 Q1034 NOSIG

Zeit: 19:41 (17:41 UTC)

Prognose

Neuester Wetterbericht von vor 1 Stunde und 41 Minuten, um 16:00 UTC
Gültige Prognose vom 23 um 18 UTC bis 24 um 24 UTC
Wind 3 kt aus unterschiedlichen Richtungen
Sichtweite 10 km oder mehr
keine Wolken unter 1500 m und keine Kumulonimbus oder Gewitterwolken
Wahrscheinlichkeit 30% :
Zeitweise
vom 24 um 03 UTC bis 24 um 06 UTC
Sichtweite: 5000 m
feuchter Dunst,

TAF: FAOR 231600Z 2318/2424 VRB03KT CAVOK TX18/2413Z TN06/2405Z PROB30 TEMPO 2403/2406 5000 BR NSC

Wetterbeobachtungen und Prognosen von mehr als 4000 Flughäfen (METAR und TAF Bericht).

Die verfügbaren Stationen werden durch gelbe und rote Markierungen auf der Karte dargestellt.

Führen Sie die Maus auf sie, um den Namen der Station zu sehen.

Darauf klicken, um die Beobachtung von Wetterbeobachtungen und Prognosen zu sehen.

Um die Karte zu ändern : klicken Sie auf den grünen Tasten mit einem schwarzen Kreuz Zum Vergrößern, auf den grünen Button mit einem Gedankenstrich zu verkleinern, oder auf die grünen Pfeile für benachbarte Karten.


METAR-TAF: